Time;durP1;ratioP1;P1;durP2;ratioP2;P2;SDS_P1;SDS_P2;PMS_P1;PMS_P2;Temp;Humidity;BMP_temperature;BMP_pressure;BME280_temperature;BME280_humidity;BME280_pressure;Samples;Min_cycle;Max_cycle;Signal;HPM_P1;HPM_P2
2023/03/17 00:00:51;;;;;;;185.73;92.85;;;77.00;2227.20;;;;;;5011605;28;20076;-60
2023/03/17 00:03:24;;;;;;;87.82;42.33;;;77.10;2227.20;;;;;;5010964;28;20528;-60
2023/03/17 00:05:52;;;;;;;17.25;9.90;;;77.00;2227.20;;;;;;5011799;28;20026;-59
2023/03/17 00:08:30;;;;;;;17.98;11.63;;;77.10;2227.20;;;;;;5011795;28;20033;-59
2023/03/17 00:10:56;;;;;;;47.08;26.02;;;77.00;2227.20;;;;;;5010626;28;20029;-70
2023/03/17 00:13:22;;;;;;;81.03;44.97;;;77.00;2227.20;;;;;;5278094;23;20509;-68
2023/03/17 00:15:54;;;;;;;49.85;28.25;;;76.90;2227.20;;;;;;4952483;29;20030;-65
2023/03/17 00:18:20;;;;;;;24.52;15.50;;;77.10;2227.20;;;;;;4951884;29;20027;-61
2023/03/17 00:20:47;;;;;;;56.05;30.38;;;77.00;2227.20;;;;;;4952168;29;20026;-66
2023/03/17 00:23:30;;;;;;;68.18;37.55;;;77.00;2227.20;;;;;;4952602;28;20023;-65
2023/03/17 00:25:56;;;;;;;;;;;77.00;2227.20;;;;;;4952445;29;20023;-66
2023/03/17 00:28:25;;;;;;;22.33;14.50;;;77.10;2227.20;;;;;;4951784;29;19994;-64
2023/03/17 00:30:59;;;;;;;23.67;12.25;;;77.10;2227.20;;;;;;4952111;29;20034;-62
2023/03/17 00:33:27;;;;;;;15.38;7.63;;;77.10;2227.20;;;;;;4950355;29;20030;-68
2023/03/17 00:35:54;;;;;;;32.53;17.50;;;77.10;2227.20;;;;;;4951898;29;20167;-68
2023/03/17 00:38:23;;;;;;;22.20;11.93;;;76.90;2227.20;;;;;;4952173;29;20027;-67
2023/03/17 00:40:49;;;;;;;12.18;6.25;;;76.90;2227.20;;;;;;4951199;29;20023;-68
2023/03/17 00:43:16;;;;;;;22.02;12.15;;;52.10;2227.20;;;;;;4951378;28;20038;-69
2023/03/17 00:45:42;;;;;;;18.25;9.60;;;52.10;2227.20;;;;;;4934578;29;20039;-66
2023/03/17 00:48:28;;;;;;;18.23;9.32;;;52.10;2227.20;;;;;;4951713;28;20031;-64
2023/03/17 00:50:54;;;;;;;31.52;12.52;;;76.80;2227.20;;;;;;4951714;28;20019;-64
2023/03/17 00:53:20;;;;;;;12.82;7.78;;;52.10;2227.20;;;;;;4951737;28;20367;-62
2023/03/17 00:55:47;;;;;;;13.98;7.65;;;52.10;2227.20;;;;;;4951705;29;20422;-65
2023/03/17 00:58:40;;;;;;;50.58;23.17;;;76.80;2227.20;;;;;;4951910;29;20438;-61
2023/03/17 01:01:07;;;;;;;23.60;11.10;;;76.80;2227.20;;;;;;4911178;29;20034;-60
2023/03/17 01:03:33;;;;;;;29.02;16.77;;;52.10;2227.20;;;;;;4910935;29;20036;-63
2023/03/17 01:06:01;;;;;;;25.90;14.40;;;76.80;2227.20;;;;;;4911609;29;20446;-62
2023/03/17 01:08:28;;;;;;;15.35;8.75;;;76.80;2227.20;;;;;;4910670;29;20044;-63
2023/03/17 01:10:55;;;;;;;19.88;12.93;;;76.80;2227.20;;;;;;4911199;29;20107;-61
2023/03/17 01:13:21;;;;;;;11.07;7.35;;;76.80;2227.20;;;;;;4920229;29;20102;-63
2023/03/17 01:15:48;;;;;;;10.93;7.40;;;52.10;2227.20;;;;;;4949079;29;20031;-61
2023/03/17 01:18:16;;;;;;;30.25;13.85;;;52.00;2227.20;;;;;;4949278;29;20047;-68
2023/03/17 01:20:42;;;;;;;15.13;7.90;;;51.90;2227.20;;;;;;4949018;29;20134;-67
2023/03/17 01:23:11;;;;;;;19.13;8.80;;;51.80;2227.20;;;;;;4948895;29;20071;-61
2023/03/17 01:25:39;;;;;;;19.38;10.73;;;51.80;2227.20;;;;;;4948330;29;20039;-62
2023/03/17 01:28:05;;;;;;;15.98;7.75;;;51.80;2227.20;;;;;;4945282;29;20549;-62
2023/03/17 01:30:34;;;;;;;17.33;10.35;;;51.70;2227.20;;;;;;4949298;29;20031;-61
2023/03/17 01:33:01;;;;;;;13.60;6.00;;;51.60;2227.20;;;;;;4949085;29;20019;-61
2023/03/17 01:35:30;;;;;;;11.88;7.25;;;51.60;2227.20;;;;;;4948833;29;20028;-62
2023/03/17 01:37:56;;;;;;;11.35;6.95;;;51.80;2227.20;;;;;;4950190;29;20041;-61
2023/03/17 01:40:30;;;;;;;16.75;7.72;;;51.70;2227.20;;;;;;4955535;29;20031;-63
2023/03/17 01:43:03;;;;;;;11.65;7.05;;;51.70;2227.20;;;;;;4955788;29;20032;-61
2023/03/17 01:46:06;;;;;;;15.70;8.68;;;51.60;2227.20;;;;;;4955829;29;20032;-70
2023/03/17 01:48:44;;;;;;;12.95;7.35;;;51.60;2227.20;;;;;;4956761;29;20039;-62
2023/03/17 01:51:16;;;;;;;12.02;6.10;;;51.40;2227.20;;;;;;4957080;29;20038;-67
2023/03/17 01:53:44;;;;;;;12.93;6.15;;;51.50;2227.20;;;;;;4936701;29;20027;-61
2023/03/17 01:56:11;;;;;;;13.95;8.15;;;51.60;2227.20;;;;;;4944170;29;20070;-67
2023/03/17 01:58:38;;;;;;;12.57;5.95;;;51.60;2227.20;;;;;;4950715;29;20132;-61
2023/03/17 02:01:06;;;;;;;22.10;11.48;;;51.50;2227.20;;;;;;4951165;29;20023;-65
2023/03/17 02:03:32;;;;;;;13.88;7.15;;;51.50;2227.20;;;;;;4951147;29;20027;-66
2023/03/17 02:05:59;;;;;;;12.85;7.30;;;51.50;2227.20;;;;;;4951399;29;20102;-61
2023/03/17 02:08:26;;;;;;;12.05;6.28;;;51.40;2227.20;;;;;;4950457;29;20031;-62
2023/03/17 02:10:53;;;;;;;23.98;21.13;;;51.30;2227.20;;;;;;4951228;29;20027;-61
2023/03/17 02:13:18;;;;;;;13.50;7.22;;;51.50;2227.20;;;;;;4955658;28;20078;-61
2023/03/17 02:15:50;;;;;;;11.45;7.85;;;51.40;2227.20;;;;;;4974140;28;20559;-62
2023/03/17 02:18:19;;;;;;;19.58;10.02;;;51.50;2227.20;;;;;;4974181;28;20023;-62
2023/03/17 02:20:45;;;;;;;13.27;7.32;;;26.50;2201.60;;;;;;4973914;28;20022;-62
2023/03/17 02:23:14;;;;;;;10.70;6.60;;;26.50;2201.60;;;;;;4973954;28;20031;-61
2023/03/17 02:25:43;;;;;;;13.23;7.72;;;26.40;2201.60;;;;;;4973758;28;20030;-62
2023/03/17 02:28:15;;;;;;;14.07;9.20;;;26.20;2201.60;;;;;;4973395;28;20027;-62
2023/03/17 02:30:43;;;;;;;11.68;7.60;;;26.10;2201.60;;;;;;4973745;28;20026;-61
2023/03/17 02:33:10;;;;;;;13.27;7.03;;;26.10;2201.60;;;;;;4973461;28;20424;-62
2023/03/17 02:35:37;;;;;;;12.40;8.10;;;26.10;2201.60;;;;;;4973532;28;20019;-64
2023/03/17 02:38:02;;;;;;;17.50;8.85;;;26.10;2201.60;;;;;;4973804;28;20027;-62
2023/03/17 02:40:28;;;;;;;11.55;6.65;;;26.10;2201.60;;;;;;4973289;28;20033;-66
2023/03/17 02:42:55;;;;;;;14.88;8.57;;;26.10;2201.60;;;;;;4973219;28;20027;-64
2023/03/17 02:45:22;;;;;;;19.30;8.60;;;26.10;2201.60;;;;;;4973344;28;20023;-61
2023/03/17 02:47:50;;;;;;;15.45;7.72;;;26.00;2201.60;;;;;;4973230;28;20038;-61
2023/03/17 02:50:22;;;;;;;11.57;7.20;;;26.10;2201.60;;;;;;4973186;28;20436;-61
2023/03/17 02:52:49;;;;;;;14.07;8.45;;;26.20;2201.60;;;;;;4973500;28;20504;-61
2023/03/17 02:55:15;;;;;;;14.00;9.00;;;26.00;2201.60;;;;;;4973219;28;20019;-61
2023/03/17 02:57:42;;;;;;;12.63;7.68;;;25.90;2201.60;;;;;;4973080;28;20026;-62
2023/03/17 03:00:09;;;;;;;19.25;8.98;;;25.90;2201.60;;;;;;4972738;28;20023;-61
2023/03/17 03:02:36;;;;;;;15.65;7.90;;;25.80;2201.60;;;;;;4973126;28;20094;-61
2023/03/17 03:05:02;;;;;;;15.13;8.02;;;25.70;2201.60;;;;;;4972947;28;20524;-61
2023/03/17 03:07:29;;;;;;;14.48;8.38;;;25.70;2201.60;;;;;;4973177;28;20035;-61
2023/03/17 03:09:55;;;;;;;16.50;7.72;;;25.60;2201.60;;;;;;4972467;28;20030;-61
2023/03/17 03:12:21;;;;;;;16.80;8.65;;;0.90;2201.60;;;;;;4973036;28;20038;-61
2023/03/17 03:14:47;;;;;;;15.50;7.78;;;0.90;2201.60;;;;;;4972621;28;20505;-62
2023/03/17 03:17:14;;;;;;;14.35;9.10;;;0.90;2201.60;;;;;;4973076;28;20701;-61
2023/03/17 03:19:39;;;;;;;12.93;6.65;;;0.90;2201.60;;;;;;4972659;28;20026;-61
2023/03/17 03:22:05;;;;;;;11.45;7.20;;;25.60;2201.60;;;;;;4973013;28;20030;-62
2023/03/17 03:24:31;;;;;;;11.50;5.82;;;25.60;2201.60;;;;;;4972602;28;20500;-68
2023/03/17 03:26:57;;;;;;;9.48;5.85;;;25.60;2201.60;;;;;;4972260;28;20026;-64
2023/03/17 03:29:22;;;;;;;12.93;6.53;;;25.70;2201.60;;;;;;4972504;28;20045;-61
2023/03/17 03:31:48;;;;;;;11.90;6.40;;;25.90;2201.60;;;;;;4972126;28;20023;-66
2023/03/17 03:34:15;;;;;;;11.00;5.10;;;26.00;2201.60;;;;;;4972517;28;20022;-68
2023/03/17 03:36:41;;;;;;;7.90;5.07;;;26.20;2201.60;;;;;;4972720;28;20473;-61
2023/03/17 03:39:07;;;;;;;11.57;5.85;;;26.30;2201.60;;;;;;4971907;28;20025;-60
2023/03/17 03:41:33;;;;;;;9.13;5.38;;;26.40;2201.60;;;;;;4972469;28;20390;-61
2023/03/17 03:43:59;;;;;;;10.23;5.82;;;26.40;2201.60;;;;;;4971999;28;20031;-61
2023/03/17 03:46:27;;;;;;;11.52;5.82;;;26.40;2201.60;;;;;;4972683;28;20031;-62
2023/03/17 03:48:53;;;;;;;21.00;11.00;;;26.40;2201.60;;;;;;4971241;28;20046;-62
2023/03/17 03:51:19;;;;;;;19.30;9.60;;;26.40;2201.60;;;;;;4972137;28;20041;-62
2023/03/17 03:53:47;;;;;;;14.35;8.40;;;26.10;2201.60;;;;;;4971981;28;20062;-61
2023/03/17 03:56:13;;;;;;;12.70;7.20;;;25.90;2201.60;;;;;;4972174;28;20497;-65
2023/03/17 03:58:40;;;;;;;13.55;7.45;;;25.70;2201.60;;;;;;4971761;28;20038;-61
2023/03/17 04:01:08;;;;;;;17.83;9.93;;;25.60;2201.60;;;;;;4972000;28;20023;-64
2023/03/17 04:03:37;;;;;;;11.38;7.28;;;0.90;2201.60;;;;;;4959602;28;20034;-61
2023/03/17 04:06:03;;;;;;;14.18;8.57;;;0.90;2201.60;;;;;;4972148;28;20039;-61
2023/03/17 04:08:30;;;;;;;12.35;7.63;;;25.60;2201.60;;;;;;4971587;28;20481;-65
2023/03/17 04:10:56;;;;;;;8.63;6.68;;;0.90;2201.60;;;;;;4971791;28;20381;-61
2023/03/17 04:13:22;;;;;;;10.07;7.05;;;0.90;2201.60;;;;;;4971556;28;20093;-61
2023/03/17 04:15:48;;;;;;;12.05;7.40;;;25.70;2201.60;;;;;;4971558;28;20050;-61
2023/03/17 04:18:14;;;;;;;12.60;8.15;;;25.60;2201.60;;;;;;4971772;28;20031;-61
2023/03/17 04:20:40;;;;;;;13.25;7.38;;;25.60;2201.60;;;;;;4971739;28;20026;-63
2023/03/17 04:23:06;;;;;;;10.88;6.78;;;25.60;2201.60;;;;;;4971485;28;20027;-62
2023/03/17 04:25:32;;;;;;;11.45;6.78;;;0.90;2201.60;;;;;;4971176;28;20031;-64
2023/03/17 04:27:58;;;;;;;9.30;6.93;;;0.90;2201.60;;;;;;4971216;28;20046;-61
2023/03/17 04:30:23;;;;;;;12.90;6.93;;;0.80;2201.60;;;;;;4971146;28;20030;-64
2023/03/17 04:32:49;;;;;;;11.65;6.90;;;0.90;2201.60;;;;;;4971610;28;20019;-64
2023/03/17 04:35:18;;;;;;;14.73;9.02;;;0.90;2201.60;;;;;;4971301;28;20030;-60
2023/03/17 04:37:45;;;;;;;17.58;9.57;;;25.60;2201.60;;;;;;4953393;28;20031;-64
2023/03/17 04:40:12;;;;;;;13.20;8.07;;;0.90;2201.60;;;;;;4970850;28;20034;-64
2023/03/17 04:42:38;;;;;;;14.82;7.60;;;0.80;2201.60;;;;;;4970916;28;20066;-66
2023/03/17 04:45:05;;;;;;;26.58;13.43;;;0.70;2201.60;;;;;;4971266;28;20023;-62
2023/03/17 04:47:31;;;;;;;12.23;7.22;;;0.60;2201.60;;;;;;4971051;28;20756;-63
2023/03/17 04:49:57;;;;;;;18.17;7.10;;;0.60;2201.60;;;;;;4970867;28;20043;-61
2023/03/17 04:52:23;;;;;;;13.57;7.55;;;0.60;2201.60;;;;;;4971065;28;20063;-61
2023/03/17 04:54:49;;;;;;;9.65;6.18;;;0.70;2201.60;;;;;;4970781;28;20027;-65
2023/03/17 04:57:15;;;;;;;10.68;6.55;;;0.70;2201.60;;;;;;4971011;28;20037;-67
2023/03/17 04:59:41;;;;;;;10.20;6.80;;;0.80;2201.60;;;;;;4970834;28;20027;-65
2023/03/17 05:02:07;;;;;;;9.25;6.72;;;0.80;2201.60;;;;;;4970977;28;20458;-61
2023/03/17 05:04:33;;;;;;;11.68;7.43;;;0.80;2201.60;;;;;;4970639;28;20026;-62
2023/03/17 05:07:00;;;;;;;12.43;7.03;;;0.70;2201.60;;;;;;4970951;28;20381;-63
2023/03/17 05:09:27;;;;;;;17.40;7.80;;;0.70;2201.60;;;;;;4970369;28;20123;-61
2023/03/17 05:11:53;;;;;;;13.60;7.18;;;0.60;2201.60;;;;;;4970699;28;20027;-65
2023/03/17 05:14:19;;;;;;;11.50;7.32;;;0.60;2201.60;;;;;;4969870;28;20405;-61
2023/03/17 05:16:49;;;;;;;13.25;7.20;;;0.70;2201.60;;;;;;4970919;28;20034;-61
2023/03/17 05:19:15;;;;;;;14.57;7.32;;;0.70;2201.60;;;;;;4970652;28;20035;-61
2023/03/17 05:21:41;;;;;;;14.68;7.80;;;0.80;2201.60;;;;;;4970481;28;20093;-61
2023/03/17 05:24:07;;;;;;;9.80;5.57;;;0.90;2201.60;;;;;;4970361;28;20122;-62
2023/03/17 05:26:33;;;;;;;15.30;6.97;;;0.90;2201.60;;;;;;4970596;28;20031;-61
2023/03/17 05:28:59;;;;;;;10.23;5.70;;;25.60;2201.60;;;;;;4969903;28;20050;-61
2023/03/17 05:31:25;;;;;;;15.00;7.05;;;25.70;2201.60;;;;;;4970780;28;20035;-61
2023/03/17 05:33:51;;;;;;;13.93;7.78;;;26.00;2201.60;;;;;;4970451;28;20110;-66
2023/03/17 05:36:17;;;;;;;17.52;7.00;;;26.10;2201.60;;;;;;4970288;28;20038;-61
2023/03/17 05:38:43;;;;;;;15.40;6.75;;;26.30;2201.60;;;;;;4969969;28;20437;-61
2023/03/17 05:41:09;;;;;;;13.55;6.65;;;26.50;2201.60;;;;;;4952789;28;20124;-65
2023/03/17 05:43:36;;;;;;;9.32;5.18;;;26.50;2201.60;;;;;;4969739;28;20106;-63
2023/03/17 05:46:02;;;;;;;10.45;6.22;;;26.40;2201.60;;;;;;4970514;28;20033;-66
2023/03/17 05:48:29;;;;;;;11.65;5.28;;;26.30;2201.60;;;;;;4971017;28;20045;-60
2023/03/17 05:50:54;;;;;;;11.10;6.32;;;26.20;2201.60;;;;;;4974709;28;20037;-67
2023/03/17 05:53:21;;;;;;;11.73;6.63;;;26.40;2201.60;;;;;;4974248;28;20035;-63
2023/03/17 05:55:46;;;;;;;10.88;6.53;;;26.50;2201.60;;;;;;4974310;28;20058;-67
2023/03/17 05:58:14;;;;;;;11.05;5.97;;;51.20;2227.20;;;;;;4974184;28;20065;-63
2023/03/17 06:00:41;;;;;;;13.60;7.40;;;26.50;2201.60;;;;;;4959028;28;20031;-61
2023/03/17 06:03:06;;;;;;;15.18;8.90;;;26.50;2201.60;;;;;;4993427;28;20408;-61
2023/03/17 06:05:33;;;;;;;15.35;9.75;;;51.20;2227.20;;;;;;4993575;28;20026;-65
2023/03/17 06:07:58;;;;;;;15.32;8.02;;;51.40;2227.20;;;;;;4993564;28;20173;-66
2023/03/17 06:10:24;;;;;;;13.98;8.50;;;51.40;2227.20;;;;;;4993631;28;20534;-61
2023/03/17 06:12:50;;;;;;;16.95;9.30;;;51.30;2227.20;;;;;;4992214;28;20120;-64
2023/03/17 06:15:16;;;;;;;10.13;8.05;;;51.90;2227.20;;;;;;4973741;28;20027;-62
2023/03/17 06:17:42;;;;;;;31.33;15.80;;;128.40;2252.80;;;;;;4973937;28;20015;-66
2023/03/17 06:20:08;;;;;;;16.80;11.35;;;179.90;2252.80;;;;;;4973708;28;20026;-63
2023/03/17 06:22:36;;;;;;;23.60;15.75;;;230.80;2073.60;;;;;;4973757;28;20489;-63
2023/03/17 06:25:01;;;;;;;22.00;11.88;;;281.70;1920.00;;;;;;4973720;28;20023;-66
2023/03/17 06:27:27;;;;;;;17.13;10.32;;;307.70;1792.00;;;;;;4973487;28;20050;-64
2023/03/17 06:29:53;;;;;;;60.88;37.28;;;333.30;1740.80;;;;;;4973725;28;20114;-65
2023/03/17 06:32:18;;;;;;;25.98;16.63;;;358.40;1689.60;;;;;;4968753;28;20046;-64
2023/03/17 06:34:44;;;;;;;21.02;13.75;;;333.70;1689.60;;;;;;4973869;28;20031;-64
2023/03/17 06:37:11;;;;;;;16.83;12.88;;;333.30;1689.60;;;;;;4973829;28;20023;-64
2023/03/17 06:39:37;;;;;;;20.42;14.10;;;333.40;1664.00;;;;;;4973280;28;20030;-64
2023/03/17 06:42:03;;;;;;;19.92;14.63;;;333.50;1664.00;;;;;;4973261;28;20030;-63
2023/03/17 06:44:29;;;;;;;27.35;21.08;;;333.60;1664.00;;;;;;4973049;28;20023;-63
2023/03/17 06:46:55;;;;;;;29.45;24.17;;;358.80;1664.00;;;;;;4973252;28;20030;-63
2023/03/17 06:49:21;;;;;;;24.98;17.00;;;358.90;1612.80;;;;;;4973466;28;20039;-65
2023/03/17 06:51:47;;;;;;;20.40;17.08;;;359.10;1587.20;;;;;;4973315;28;20122;-63
2023/03/17 06:54:12;;;;;;;22.17;16.98;;;359.30;1587.20;;;;;;4973217;28;20027;-64
2023/03/17 06:56:38;;;;;;;25.27;18.38;;;384.30;1561.60;;;;;;4973009;28;20022;-66
2023/03/17 06:59:04;;;;;;;22.00;15.90;;;384.70;1536.00;;;;;;4972979;28;20022;-61
2023/03/17 07:01:30;;;;;;;23.58;17.15;;;435.30;1484.80;;;;;;4954169;28;20421;-62
2023/03/17 07:03:56;;;;;;;21.30;14.02;;;460.80;1433.60;;;;;;4972854;28;20110;-62
2023/03/17 07:06:22;;;;;;;20.10;13.95;;;461.20;1382.40;;;;;;4973041;28;20122;-63
2023/03/17 07:08:49;;;;;;;19.65;14.40;;;486.80;1331.20;;;;;;4972663;28;20038;-65
2023/03/17 07:11:15;;;;;;;15.95;13.27;;;486.80;1331.20;;;;;;4970135;28;20038;-65
2023/03/17 07:13:41;;;;;;;14.77;11.85;;;487.10;1305.60;;;;;;4960944;28;20505;-61
2023/03/17 07:16:07;;;;;;;16.17;12.55;;;512.40;1254.40;;;;;;4972353;28;20030;-69
2023/03/17 07:18:33;;;;;;;21.25;16.92;;;512.60;1228.80;;;;;;4972880;28;20027;-62
2023/03/17 07:21:02;;;;;;;21.63;16.73;;;538.20;1228.80;;;;;;4972495;28;20027;-60
2023/03/17 07:23:29;;;;;;;18.40;16.50;;;563.60;1203.20;;;;;;4972330;28;20035;-62
2023/03/17 07:25:56;;;;;;;18.42;16.52;;;563.80;1177.60;;;;;;4972421;28;20023;-63
2023/03/17 07:28:22;;;;;;;20.25;18.13;;;589.10;1152.00;;;;;;4972615;28;20393;-69
2023/03/17 07:30:49;;;;;;;17.02;12.55;;;614.50;1100.80;;;;;;4972241;28;20026;-62
2023/03/17 07:33:16;;;;;;;15.43;12.43;;;614.80;1075.20;;;;;;4972440;28;20158;-64
2023/03/17 07:35:46;;;;;;;15.30;11.23;;;614.90;1075.20;;;;;;4972661;28;20105;-62
2023/03/17 07:38:12;;;;;;;14.02;11.65;;;640.50;1049.60;;;;;;4972023;28;20120;-68
2023/03/17 07:40:38;;;;;;;12.48;9.25;;;640.10;1024.00;;;;;;4971877;28;20026;-66
2023/03/17 07:43:04;;;;;;;11.55;9.95;;;614.90;1049.60;;;;;;4972050;28;20035;-63
2023/03/17 07:45:30;;;;;;;11.45;10.30;;;615.20;1024.00;;;;;;4971580;28;20037;-62
2023/03/17 07:47:55;;;;;;;17.15;13.63;;;640.60;1024.00;;;;;;4971818;28;20043;-61
2023/03/17 07:50:22;;;;;;;10.32;9.07;;;640.60;998.40;;;;;;4972107;28;20019;-63
2023/03/17 07:52:47;;;;;;;10.27;9.18;;;640.60;998.40;;;;;;4972161;28;20019;-64
2023/03/17 07:55:13;;;;;;;10.27;8.57;;;665.60;1024.00;;;;;;4971922;28;20033;-66
2023/03/17 07:57:40;;;;;;;13.27;12.00;;;665.60;1024.00;;;;;;4971758;28;20082;-65
2023/03/17 08:00:09;;;;;;;11.65;9.88;;;691.60;947.20;;;;;;4971413;28;20489;-65
2023/03/17 08:02:36;;;;;;;10.75;9.75;;;717.00;921.60;;;;;;4972091;28;20097;-65
2023/03/17 08:05:03;;;;;;;8.20;7.40;;;716.90;921.60;;;;;;4967604;28;20023;-64
2023/03/17 08:07:30;;;;;;;9.98;8.27;;;717.30;921.60;;;;;;4959420;28;20026;-66
2023/03/17 08:09:56;;;;;;;9.20;8.30;;;717.50;896.00;;;;;;4958392;28;20049;-73
2023/03/17 08:12:22;;;;;;;14.90;13.60;;;742.50;896.00;;;;;;4968917;28;20287;-70
2023/03/17 08:14:48;;;;;;;16.67;14.63;;;742.60;921.60;;;;;;4987503;28;20093;-68
2023/03/17 08:17:14;;;;;;;13.20;11.98;;;742.60;896.00;;;;;;4973639;28;20101;-71
2023/03/17 08:19:41;;;;;;;14.32;12.27;;;742.50;896.00;;;;;;4971765;28;20469;-68
2023/03/17 08:22:07;;;;;;;9.70;7.85;;;742.90;870.40;;;;;;4988826;28;20064;-68
2023/03/17 08:24:33;;;;;;;8.25;7.45;;;716.80;896.00;;;;;;4990680;28;20030;-65
2023/03/17 08:26:59;;;;;;;8.80;6.90;;;717.10;896.00;;;;;;4990952;28;20031;-64
2023/03/17 08:29:27;;;;;;;7.70;6.57;;;742.90;870.40;;;;;;4991005;28;20526;-73
2023/03/17 08:31:53;;;;;;;6.55;5.95;;;743.10;870.40;;;;;;4990695;28;20384;-65
2023/03/17 08:34:19;;;;;;;7.32;6.38;;;742.60;844.80;;;;;;4990648;28;20105;-65
2023/03/17 08:36:45;;;;;;;6.50;5.78;;;742.80;844.80;;;;;;4990587;28;20438;-64
2023/03/17 08:39:11;;;;;;;22.55;20.73;;;717.50;844.80;;;;;;4990093;28;20054;-63
2023/03/17 08:41:37;;;;;;;8.38;7.32;;;717.70;844.80;;;;;;4990221;28;20023;-63
2023/03/17 08:44:03;;;;;;;6.35;5.60;;;743.00;844.80;;;;;;4990251;28;20096;-65
2023/03/17 08:46:31;;;;;;;7.95;6.28;;;742.70;844.80;;;;;;4988505;28;20776;-70
2023/03/17 08:49:02;;;;;;;7.45;6.38;;;742.60;844.80;;;;;;4989907;28;20081;-64
2023/03/17 08:51:33;;;;;;;6.55;5.93;;;717.60;844.80;;;;;;4989634;28;20061;-63
2023/03/17 08:53:59;;;;;;;7.05;6.35;;;691.70;870.40;;;;;;4989740;28;20491;-65
2023/03/17 08:56:25;;;;;;;7.70;6.93;;;691.80;870.40;;;;;;4989913;28;20406;-64
2023/03/17 08:58:51;;;;;;;7.43;6.63;;;742.40;896.00;;;;;;4990156;28;20029;-70
2023/03/17 09:01:19;;;;;;;8.45;7.40;;;742.70;844.80;;;;;;4989924;28;20030;-65
2023/03/17 09:03:46;;;;;;;17.70;15.95;;;691.30;844.80;;;;;;4990148;28;20054;-64
2023/03/17 09:06:12;;;;;;;7.00;6.15;;;666.30;896.00;;;;;;4988743;28;20280;-65
2023/03/17 09:08:43;;;;;;;8.57;7.32;;;640.50;921.60;;;;;;4978325;28;20226;-64
2023/03/17 09:11:19;;;;;;;9.90;7.03;;;614.70;947.20;;;;;;4989575;28;20035;-69
2023/03/17 09:13:46;;;;;;;12.77;8.35;;;589.60;972.80;;;;;;4989608;28;20069;-64
2023/03/17 09:16:13;;;;;;;79.10;71.25;;;563.60;1049.60;;;;;;4972424;28;20029;-65
2023/03/17 09:18:39;;;;;;;19.13;16.73;;;537.80;1049.60;;;;;;4990244;28;20084;-65
2023/03/17 09:21:06;;;;;;;37.17;34.08;;;512.00;1075.20;;;;;;4971852;28;20045;-65
2023/03/17 09:23:32;;;;;;;8.70;4.80;;;486.70;1126.40;;;;;;4989649;28;20471;-64
2023/03/17 09:25:58;;;;;;;7.82;5.80;;;435.60;1152.00;;;;;;4989340;28;20027;-63
2023/03/17 09:28:24;;;;;;;8.27;5.95;;;410.20;1203.20;;;;;;4989668;28;20117;-63
2023/03/17 09:30:51;;;;;;;7.18;6.20;;;410.20;1280.00;;;;;;4989346;28;20101;-62
2023/03/17 09:33:17;;;;;;;9.30;8.43;;;409.80;1305.60;;;;;;4989784;28;20023;-62
2023/03/17 09:35:43;;;;;;;7.63;5.18;;;410.00;1254.40;;;;;;4989908;28;20038;-68
2023/03/17 09:38:10;;;;;;;9.93;8.80;;;384.20;1254.40;;;;;;4989760;28;20033;-62
2023/03/17 09:40:44;;;;;;;8.48;5.32;;;384.80;1254.40;;;;;;4989159;28;20507;-62
2023/03/17 09:43:25;;;;;;;8.65;5.32;;;384.70;1305.60;;;;;;4971410;28;20745;-66
2023/03/17 09:45:51;;;;;;;8.15;6.47;;;384.10;1356.80;;;;;;4989742;28;20022;-66
2023/03/17 09:48:35;;;;;;;5.90;4.35;;;359.30;1356.80;;;;;;4989051;28;20045;-64
2023/03/17 09:51:05;;;;;;;6.22;4.20;;;359.00;1408.00;;;;;;4989471;28;20121;-64
2023/03/17 09:53:35;;;;;;;7.65;4.43;;;358.80;1356.80;;;;;;4989475;28;20076;-64
2023/03/17 09:56:29;;;;;;;16.98;13.30;;;358.80;1382.40;;;;;;4989470;28;20030;-63
2023/03/17 09:59:05;;;;;;;13.05;8.95;;;359.10;1382.40;;;;;;4986623;28;20057;-63
2023/03/17 10:01:31;;;;;;;12.70;7.60;;;358.90;1356.80;;;;;;4989658;28;20034;-66
2023/03/17 10:03:57;;;;;;;6.72;4.97;;;358.70;1356.80;;;;;;4989285;28;20027;-66
2023/03/17 10:06:37;;;;;;;7.13;4.63;;;358.90;1408.00;;;;;;4989590;28;20106;-64
2023/03/17 10:09:28;;;;;;;7.38;5.00;;;358.90;1408.00;;;;;;4989344;28;20500;-61
2023/03/17 10:12:26;;;;;;;18.08;12.88;;;358.50;1382.40;;;;;;4989291;28;20021;-68
2023/03/17 10:15:05;;;;;;;6.90;4.68;;;358.80;1356.80;;;;;;4989285;28;20096;-62
2023/03/17 10:17:35;;;;;;;14.77;9.75;;;358.70;1382.40;;;;;;4989512;28;20022;-62
2023/03/17 10:20:11;;;;;;;9.20;5.95;;;358.80;1433.60;;;;;;4989055;28;20030;-69
2023/03/17 10:22:51;;;;;;;6.85;4.35;;;358.90;1433.60;;;;;;4989381;28;20031;-70
2023/03/17 10:25:27;;;;;;;18.70;13.88;;;358.80;1459.20;;;;;;4989174;28;20433;-70
2023/03/17 10:28:25;;;;;;;9.68;8.00;;;359.00;1408.00;;;;;;4989430;28;20488;-63
2023/03/17 10:30:52;;;;;;;28.60;22.65;;;358.80;1382.40;;;;;;4920525;29;20044;-62
2023/03/17 10:33:18;;;;;;;42.60;30.45;;;358.50;1433.60;;;;;;4929323;29;20027;-64
2023/03/17 10:35:44;;;;;;;15.93;12.93;;;333.60;1408.00;;;;;;4931273;29;20059;-62
2023/03/17 10:38:28;;;;;;;7.00;5.38;;;333.70;1408.00;;;;;;4932515;29;20079;-62
2023/03/17 10:41:01;;;;;;;8.93;4.68;;;333.60;1433.60;;;;;;4933024;29;20036;-61
2023/03/17 10:43:29;;;;;;;39.88;25.27;;;333.50;1459.20;;;;;;4932497;29;20055;-64
2023/03/17 10:46:04;;;;;;;15.07;8.60;;;358.40;1459.20;;;;;;4932505;29;20028;-63
2023/03/17 10:48:37;;;;;;;7.82;4.40;;;332.80;1433.60;;;;;;4932484;29;20044;-69
2023/03/17 10:51:19;;;;;;;9.55;5.25;;;333.10;1408.00;;;;;;4932891;29;20416;-63
2023/03/17 10:53:45;;;;;;;17.33;10.07;;;333.30;1408.00;;;;;;4932536;29;20055;-62
2023/03/17 10:56:23;;;;;;;11.73;6.85;;;333.30;1459.20;;;;;;4932407;29;20471;-63
2023/03/17 10:58:50;;;;;;;13.93;9.70;;;333.40;1510.40;;;;;;4932511;29;20070;-67
2023/03/17 11:01:33;;;;;;;32.97;24.30;;;333.30;1536.00;;;;;;4932357;29;20035;-67
2023/03/17 11:04:01;;;;;;;6.80;5.10;;;333.40;1510.40;;;;;;4932261;29;20028;-62
2023/03/17 11:06:36;;;;;;;14.13;8.85;;;333.30;1484.80;;;;;;4956894;28;20260;-63
2023/03/17 11:09:15;;;;;;;7.20;4.85;;;333.20;1433.60;;;;;;4992055;28;20077;-65
2023/03/17 11:11:57;;;;;;;6.38;4.03;;;333.30;1536.00;;;;;;4992192;28;20111;-64
2023/03/17 11:14:28;;;;;;;6.45;3.50;;;333.60;1536.00;;;;;;4991975;28;20133;-67
2023/03/17 11:16:55;;;;;;;6.63;4.32;;;333.60;1536.00;;;;;;4992257;28;20093;-62
2023/03/17 11:19:44;;;;;;;7.88;4.28;;;333.30;1484.80;;;;;;4991830;28;20014;-65
2023/03/17 11:22:39;;;;;;;6.13;4.38;;;333.50;1510.40;;;;;;4944533;29;20096;-68
2023/03/17 11:25:18;;;;;;;7.60;4.18;;;333.10;1536.00;;;;;;4948844;29;20442;-63
2023/03/17 11:27:53;;;;;;;9.82;6.45;;;332.90;1561.60;;;;;;4950943;29;20035;-64
2023/03/17 11:30:28;;;;;;;12.63;8.23;;;333.00;1561.60;;;;;;4949465;29;20031;-68
2023/03/17 11:33:22;;;;;;;8.98;7.13;;;333.10;1536.00;;;;;;4939932;29;20090;-65
2023/03/17 11:35:51;;;;;;;6.00;3.75;;;333.40;1510.40;;;;;;4875145;29;20396;-62
2023/03/17 11:38:27;;;;;;;9.95;6.43;;;333.30;1510.40;;;;;;4875247;29;20105;-64
2023/03/17 11:40:55;;;;;;;26.38;16.77;;;333.30;1510.40;;;;;;4875350;29;20103;-62
2023/03/17 11:43:58;;;;;;;21.15;12.45;;;332.90;1459.20;;;;;;4875473;29;20052;-62
2023/03/17 11:46:47;;;;;;;13.07;9.43;;;333.00;1459.20;;;;;;4874374;29;20142;-67
2023/03/17 11:49:17;;;;;;;13.70;9.90;;;333.30;1433.60;;;;;;4874974;29;20045;-62
2023/03/17 11:52:09;;;;;;;15.60;10.20;;;308.10;1433.60;;;;;;4875160;29;20033;-67
2023/03/17 11:54:44;;;;;;;21.10;14.70;;;307.60;1484.80;;;;;;4875039;29;20036;-70
2023/03/17 11:57:42;;;;;;;7.30;4.35;;;307.60;1484.80;;;;;;4874862;29;20056;-62
2023/03/17 12:00:31;;;;;;;8.13;5.22;;;332.90;1510.40;;;;;;4908532;29;20028;-63
2023/03/17 12:03:38;;;;;;;5.72;4.18;;;333.20;1510.40;;;;;;4931055;29;20063;-70
2023/03/17 12:06:27;;;;;;;9.48;4.65;;;333.30;1510.40;;;;;;4931005;29;20044;-62
2023/03/17 12:09:06;;;;;;;19.33;12.25;;;333.30;1536.00;;;;;;4930991;29;20043;-64
2023/03/17 12:11:37;;;;;;;16.98;12.90;;;333.40;1459.20;;;;;;4931283;28;20487;-71
2023/03/17 12:14:55;;;;;;;8.95;5.72;;;333.50;1459.20;;;;;;4991059;28;20050;-62
2023/03/17 12:17:35;;;;;;;450.25;303.50;;;333.30;1459.20;;;;;;4887047;29;20456;-65
2023/03/17 12:20:17;;;;;;;21.23;14.15;;;333.30;1408.00;;;;;;4893206;29;20104;-66
2023/03/17 12:23:00;;;;;;;9.10;7.25;;;333.30;1433.60;;;;;;4893137;29;20028;-68
2023/03/17 12:25:39;;;;;;;9.73;5.78;;;333.30;1433.60;;;;;;4893048;29;20074;-63